sensor_id;sensor_type;location;lat;lon;timestamp;P1;durP1;ratioP1;P2;durP2;ratioP2
55993;SDS011;67425;52.126;20.638;2024-01-16T00:00:21;0.35;;;0.35;;
55993;SDS011;67425;52.126;20.638;2024-01-16T00:02:47;2.67;;;0.95;;
55993;SDS011;67425;52.126;20.638;2024-01-16T00:05:13;3.13;;;1.20;;
55993;SDS011;67425;52.126;20.638;2024-01-16T00:07:38;0.93;;;0.52;;
55993;SDS011;67425;52.126;20.638;2024-01-16T00:10:06;4.60;;;0.77;;
55993;SDS011;67425;52.126;20.638;2024-01-16T00:12:32;1.48;;;0.95;;
55993;SDS011;67425;52.126;20.638;2024-01-16T00:14:58;1.13;;;0.85;;
55993;SDS011;67425;52.126;20.638;2024-01-16T00:17:23;1.58;;;0.73;;
55993;SDS011;67425;52.126;20.638;2024-01-16T00:19:49;2.88;;;0.40;;
55993;SDS011;67425;52.126;20.638;2024-01-16T00:22:14;4.72;;;0.63;;
55993;SDS011;67425;52.126;20.638;2024-01-16T00:24:40;3.13;;;1.70;;
55993;SDS011;67425;52.126;20.638;2024-01-16T00:27:05;0.30;;;0.30;;
55993;SDS011;67425;52.126;20.638;2024-01-16T00:29:30;1.52;;;0.95;;
55993;SDS011;67425;52.126;20.638;2024-01-16T00:31:56;0.70;;;0.60;;
55993;SDS011;67425;52.126;20.638;2024-01-16T00:34:21;1.55;;;0.93;;
55993;SDS011;67425;52.126;20.638;2024-01-16T00:36:47;3.72;;;1.10;;
55993;SDS011;67425;52.126;20.638;2024-01-16T00:39:12;2.47;;;1.27;;
55993;SDS011;67425;52.126;20.638;2024-01-16T00:41:38;1.23;;;0.93;;
55993;SDS011;67425;52.126;20.638;2024-01-16T00:44:04;1.33;;;1.23;;
55993;SDS011;67425;52.126;20.638;2024-01-16T00:46:29;0.52;;;0.52;;
55993;SDS011;67425;52.126;20.638;2024-01-16T00:48:55;3.38;;;1.00;;
55993;SDS011;67425;52.126;20.638;2024-01-16T00:51:20;2.60;;;1.33;;
55993;SDS011;67425;52.126;20.638;2024-01-16T00:53:46;6.88;;;2.25;;
55993;SDS011;67425;52.126;20.638;2024-01-16T00:56:11;0.85;;;0.40;;
55993;SDS011;67425;52.126;20.638;2024-01-16T00:58:37;3.45;;;0.60;;
55993;SDS011;67425;52.126;20.638;2024-01-16T01:01:03;0.80;;;0.45;;
55993;SDS011;67425;52.126;20.638;2024-01-16T01:03:28;0.90;;;0.90;;
55993;SDS011;67425;52.126;20.638;2024-01-16T01:05:54;1.45;;;0.65;;
55993;SDS011;67425;52.126;20.638;2024-01-16T01:08:20;1.88;;;1.60;;
55993;SDS011;67425;52.126;20.638;2024-01-16T01:10:45;2.22;;;1.05;;
55993;SDS011;67425;52.126;20.638;2024-01-16T01:13:11;2.47;;;1.58;;
55993;SDS011;67425;52.126;20.638;2024-01-16T01:15:36;1.67;;;1.10;;
55993;SDS011;67425;52.126;20.638;2024-01-16T01:18:01;1.45;;;0.98;;
55993;SDS011;67425;52.126;20.638;2024-01-16T01:20:27;1.90;;;0.90;;
55993;SDS011;67425;52.126;20.638;2024-01-16T01:22:52;2.13;;;1.13;;
55993;SDS011;67425;52.126;20.638;2024-01-16T01:25:18;2.83;;;1.30;;
55993;SDS011;67425;52.126;20.638;2024-01-16T01:27:43;1.30;;;1.20;;
55993;SDS011;67425;52.126;20.638;2024-01-16T01:30:09;1.00;;;0.90;;
55993;SDS011;67425;52.126;20.638;2024-01-16T01:32:38;6.03;;;1.40;;
55993;SDS011;67425;52.126;20.638;2024-01-16T01:35:04;1.35;;;1.00;;
55993;SDS011;67425;52.126;20.638;2024-01-16T01:37:30;1.63;;;1.52;;
55993;SDS011;67425;52.126;20.638;2024-01-16T01:39:55;1.15;;;1.08;;
55993;SDS011;67425;52.126;20.638;2024-01-16T01:42:21;0.50;;;0.50;;
55993;SDS011;67425;52.126;20.638;2024-01-16T01:44:47;4.10;;;1.40;;
55993;SDS011;67425;52.126;20.638;2024-01-16T01:47:12;0.88;;;0.70;;
55993;SDS011;67425;52.126;20.638;2024-01-16T01:49:38;1.25;;;0.80;;
55993;SDS011;67425;52.126;20.638;2024-01-16T01:52:03;0.60;;;0.60;;
55993;SDS011;67425;52.126;20.638;2024-01-16T01:54:30;0.88;;;0.82;;
55993;SDS011;67425;52.126;20.638;2024-01-16T01:56:58;4.43;;;1.20;;
55993;SDS011;67425;52.126;20.638;2024-01-16T01:59:24;1.80;;;0.43;;
55993;SDS011;67425;52.126;20.638;2024-01-16T02:01:51;3.03;;;1.58;;
55993;SDS011;67425;52.126;20.638;2024-01-16T02:04:17;0.95;;;0.75;;
55993;SDS011;67425;52.126;20.638;2024-01-16T02:06:44;0.88;;;0.88;;
55993;SDS011;67425;52.126;20.638;2024-01-16T02:09:10;1.40;;;1.05;;
55993;SDS011;67425;52.126;20.638;2024-01-16T02:11:38;1.65;;;0.98;;
55993;SDS011;67425;52.126;20.638;2024-01-16T02:14:07;0.73;;;0.73;;
55993;SDS011;67425;52.126;20.638;2024-01-16T02:16:36;0.70;;;0.70;;
55993;SDS011;67425;52.126;20.638;2024-01-16T02:19:03;0.70;;;0.60;;
55993;SDS011;67425;52.126;20.638;2024-01-16T02:21:29;3.30;;;1.30;;
55993;SDS011;67425;52.126;20.638;2024-01-16T02:24:01;1.70;;;1.20;;
55993;SDS011;67425;52.126;20.638;2024-01-16T02:26:27;2.25;;;1.27;;
55993;SDS011;67425;52.126;20.638;2024-01-16T02:28:55;1.42;;;1.30;;
55993;SDS011;67425;52.126;20.638;2024-01-16T02:31:20;2.42;;;1.10;;
55993;SDS011;67425;52.126;20.638;2024-01-16T02:33:46;2.33;;;1.38;;
55993;SDS011;67425;52.126;20.638;2024-01-16T02:36:11;0.93;;;0.93;;
55993;SDS011;67425;52.126;20.638;2024-01-16T02:38:36;1.98;;;1.02;;
55993;SDS011;67425;52.126;20.638;2024-01-16T02:41:02;1.05;;;0.95;;
55993;SDS011;67425;52.126;20.638;2024-01-16T02:43:28;1.60;;;0.95;;
55993;SDS011;67425;52.126;20.638;2024-01-16T02:45:53;2.50;;;1.05;;
55993;SDS011;67425;52.126;20.638;2024-01-16T02:48:19;4.07;;;1.48;;
55993;SDS011;67425;52.126;20.638;2024-01-16T02:50:44;1.05;;;0.80;;
55993;SDS011;67425;52.126;20.638;2024-01-16T02:53:09;3.80;;;1.58;;
55993;SDS011;67425;52.126;20.638;2024-01-16T02:55:35;2.03;;;1.20;;
55993;SDS011;67425;52.126;20.638;2024-01-16T02:58:00;1.92;;;1.10;;
55993;SDS011;67425;52.126;20.638;2024-01-16T03:00:28;0.82;;;0.75;;
55993;SDS011;67425;52.126;20.638;2024-01-16T03:02:53;3.45;;;1.63;;
55993;SDS011;67425;52.126;20.638;2024-01-16T03:05:19;1.30;;;1.20;;
55993;SDS011;67425;52.126;20.638;2024-01-16T03:07:44;4.57;;;1.52;;
55993;SDS011;67425;52.126;20.638;2024-01-16T03:10:10;1.52;;;0.98;;
55993;SDS011;67425;52.126;20.638;2024-01-16T03:12:36;1.50;;;1.15;;
55993;SDS011;67425;52.126;20.638;2024-01-16T03:15:01;1.40;;;0.98;;
55993;SDS011;67425;52.126;20.638;2024-01-16T03:17:27;1.88;;;1.23;;
55993;SDS011;67425;52.126;20.638;2024-01-16T03:19:53;2.63;;;1.52;;
55993;SDS011;67425;52.126;20.638;2024-01-16T03:22:18;5.95;;;1.15;;
55993;SDS011;67425;52.126;20.638;2024-01-16T03:24:44;1.83;;;1.73;;
55993;SDS011;67425;52.126;20.638;2024-01-16T03:27:09;1.45;;;1.08;;
55993;SDS011;67425;52.126;20.638;2024-01-16T03:29:34;2.13;;;1.30;;
55993;SDS011;67425;52.126;20.638;2024-01-16T03:32:00;1.25;;;1.15;;
55993;SDS011;67425;52.126;20.638;2024-01-16T03:34:26;2.58;;;1.00;;
55993;SDS011;67425;52.126;20.638;2024-01-16T03:36:52;3.15;;;0.95;;
55993;SDS011;67425;52.126;20.638;2024-01-16T03:39:17;1.38;;;0.57;;
55993;SDS011;67425;52.126;20.638;2024-01-16T03:41:43;2.33;;;1.20;;
55993;SDS011;67425;52.126;20.638;2024-01-16T03:44:08;3.72;;;1.88;;
55993;SDS011;67425;52.126;20.638;2024-01-16T03:46:34;1.17;;;1.10;;
55993;SDS011;67425;52.126;20.638;2024-01-16T03:48:59;1.98;;;1.40;;
55993;SDS011;67425;52.126;20.638;2024-01-16T03:51:25;10.52;;;1.23;;
55993;SDS011;67425;52.126;20.638;2024-01-16T03:53:50;1.55;;;1.33;;
55993;SDS011;67425;52.126;20.638;2024-01-16T03:56:16;3.80;;;1.55;;
55993;SDS011;67425;52.126;20.638;2024-01-16T03:58:41;2.15;;;1.10;;
55993;SDS011;67425;52.126;20.638;2024-01-16T04:01:07;1.70;;;1.33;;
55993;SDS011;67425;52.126;20.638;2024-01-16T04:03:33;2.70;;;1.23;;
55993;SDS011;67425;52.126;20.638;2024-01-16T04:05:59;1.00;;;1.00;;
55993;SDS011;67425;52.126;20.638;2024-01-16T04:08:25;7.32;;;1.55;;
55993;SDS011;67425;52.126;20.638;2024-01-16T04:10:50;1.90;;;1.40;;
55993;SDS011;67425;52.126;20.638;2024-01-16T04:13:15;0.82;;;0.82;;
55993;SDS011;67425;52.126;20.638;2024-01-16T04:15:41;1.13;;;1.00;;
55993;SDS011;67425;52.126;20.638;2024-01-16T04:18:06;9.80;;;1.58;;
55993;SDS011;67425;52.126;20.638;2024-01-16T04:20:32;2.63;;;1.52;;
55993;SDS011;67425;52.126;20.638;2024-01-16T04:22:57;4.45;;;1.40;;
55993;SDS011;67425;52.126;20.638;2024-01-16T04:25:23;2.08;;;1.23;;
55993;SDS011;67425;52.126;20.638;2024-01-16T04:27:49;2.05;;;1.55;;
55993;SDS011;67425;52.126;20.638;2024-01-16T04:30:14;3.17;;;1.58;;
55993;SDS011;67425;52.126;20.638;2024-01-16T04:32:40;2.95;;;1.50;;
55993;SDS011;67425;52.126;20.638;2024-01-16T04:35:06;1.80;;;1.27;;
55993;SDS011;67425;52.126;20.638;2024-01-16T04:37:31;2.78;;;1.95;;
55993;SDS011;67425;52.126;20.638;2024-01-16T04:39:57;2.80;;;1.77;;
55993;SDS011;67425;52.126;20.638;2024-01-16T04:42:24;3.92;;;1.35;;
55993;SDS011;67425;52.126;20.638;2024-01-16T04:44:49;1.90;;;1.13;;
55993;SDS011;67425;52.126;20.638;2024-01-16T04:47:14;2.42;;;0.90;;
55993;SDS011;67425;52.126;20.638;2024-01-16T04:49:41;0.77;;;0.60;;
55993;SDS011;67425;52.126;20.638;2024-01-16T04:52:07;4.82;;;0.95;;
55993;SDS011;67425;52.126;20.638;2024-01-16T04:54:32;1.65;;;1.40;;
55993;SDS011;67425;52.126;20.638;2024-01-16T04:56:57;2.60;;;1.15;;
55993;SDS011;67425;52.126;20.638;2024-01-16T04:59:23;0.82;;;0.65;;
55993;SDS011;67425;52.126;20.638;2024-01-16T05:01:48;1.85;;;1.50;;
55993;SDS011;67425;52.126;20.638;2024-01-16T05:04:14;1.35;;;1.15;;
55993;SDS011;67425;52.126;20.638;2024-01-16T05:06:39;1.20;;;1.05;;
55993;SDS011;67425;52.126;20.638;2024-01-16T05:09:04;2.30;;;1.15;;
55993;SDS011;67425;52.126;20.638;2024-01-16T05:11:30;2.92;;;1.35;;
55993;SDS011;67425;52.126;20.638;2024-01-16T05:13:55;4.03;;;1.48;;
55993;SDS011;67425;52.126;20.638;2024-01-16T05:16:25;7.10;;;1.48;;
55993;SDS011;67425;52.126;20.638;2024-01-16T05:18:52;2.45;;;2.08;;
55993;SDS011;67425;52.126;20.638;2024-01-16T05:21:18;3.15;;;1.73;;
55993;SDS011;67425;52.126;20.638;2024-01-16T05:23:43;1.13;;;1.02;;
55993;SDS011;67425;52.126;20.638;2024-01-16T05:26:08;1.15;;;1.05;;
55993;SDS011;67425;52.126;20.638;2024-01-16T05:28:34;4.80;;;1.45;;
55993;SDS011;67425;52.126;20.638;2024-01-16T05:30:59;2.00;;;1.27;;
55993;SDS011;67425;52.126;20.638;2024-01-16T05:33:25;2.55;;;1.25;;
55993;SDS011;67425;52.126;20.638;2024-01-16T05:35:50;17.80;;;2.15;;
55993;SDS011;67425;52.126;20.638;2024-01-16T05:38:16;1.33;;;1.25;;
55993;SDS011;67425;52.126;20.638;2024-01-16T05:40:41;3.30;;;1.58;;
55993;SDS011;67425;52.126;20.638;2024-01-16T05:43:07;3.53;;;1.55;;
55993;SDS011;67425;52.126;20.638;2024-01-16T05:45:32;3.25;;;1.55;;
55993;SDS011;67425;52.126;20.638;2024-01-16T05:47:57;5.38;;;1.58;;
55993;SDS011;67425;52.126;20.638;2024-01-16T05:50:23;1.10;;;1.00;;
55993;SDS011;67425;52.126;20.638;2024-01-16T05:52:48;3.85;;;1.25;;
55993;SDS011;67425;52.126;20.638;2024-01-16T05:55:13;4.90;;;1.42;;
55993;SDS011;67425;52.126;20.638;2024-01-16T05:57:39;1.50;;;1.08;;
55993;SDS011;67425;52.126;20.638;2024-01-16T06:00:04;1.52;;;1.00;;
55993;SDS011;67425;52.126;20.638;2024-01-16T06:02:31;2.03;;;1.35;;
55993;SDS011;67425;52.126;20.638;2024-01-16T06:04:56;1.92;;;1.83;;
55993;SDS011;67425;52.126;20.638;2024-01-16T06:07:22;2.45;;;2.03;;
55993;SDS011;67425;52.126;20.638;2024-01-16T06:09:48;5.60;;;2.40;;
55993;SDS011;67425;52.126;20.638;2024-01-16T06:12:13;15.57;;;4.57;;
55993;SDS011;67425;52.126;20.638;2024-01-16T06:14:39;8.48;;;2.70;;
55993;SDS011;67425;52.126;20.638;2024-01-16T06:17:04;15.82;;;3.00;;
55993;SDS011;67425;52.126;20.638;2024-01-16T06:19:31;22.95;;;7.65;;
55993;SDS011;67425;52.126;20.638;2024-01-16T06:21:58;19.70;;;6.20;;
55993;SDS011;67425;52.126;20.638;2024-01-16T06:24:24;5.88;;;2.28;;
55993;SDS011;67425;52.126;20.638;2024-01-16T06:26:49;7.05;;;2.70;;
55993;SDS011;67425;52.126;20.638;2024-01-16T06:29:14;11.15;;;2.85;;
55993;SDS011;67425;52.126;20.638;2024-01-16T06:31:40;6.90;;;2.72;;
55993;SDS011;67425;52.126;20.638;2024-01-16T06:34:05;2.67;;;1.73;;
55993;SDS011;67425;52.126;20.638;2024-01-16T06:36:31;8.93;;;3.45;;
55993;SDS011;67425;52.126;20.638;2024-01-16T06:38:56;9.93;;;4.72;;
55993;SDS011;67425;52.126;20.638;2024-01-16T06:41:21;2.60;;;2.13;;
55993;SDS011;67425;52.126;20.638;2024-01-16T06:43:47;11.75;;;2.20;;
55993;SDS011;67425;52.126;20.638;2024-01-16T06:46:12;6.63;;;2.72;;
55993;SDS011;67425;52.126;20.638;2024-01-16T06:48:38;3.40;;;2.05;;
55993;SDS011;67425;52.126;20.638;2024-01-16T06:51:03;3.10;;;1.90;;
55993;SDS011;67425;52.126;20.638;2024-01-16T06:53:29;7.05;;;2.47;;
55993;SDS011;67425;52.126;20.638;2024-01-16T06:55:55;4.20;;;2.50;;
55993;SDS011;67425;52.126;20.638;2024-01-16T06:58:20;7.32;;;2.15;;
55993;SDS011;67425;52.126;20.638;2024-01-16T07:00:46;10.88;;;2.70;;
55993;SDS011;67425;52.126;20.638;2024-01-16T07:03:12;9.57;;;2.55;;
55993;SDS011;67425;52.126;20.638;2024-01-16T07:05:38;5.20;;;2.08;;
55993;SDS011;67425;52.126;20.638;2024-01-16T07:08:05;6.07;;;3.13;;
55993;SDS011;67425;52.126;20.638;2024-01-16T07:10:31;5.78;;;2.38;;
55993;SDS011;67425;52.126;20.638;2024-01-16T07:12:57;5.53;;;2.17;;
55993;SDS011;67425;52.126;20.638;2024-01-16T07:15:22;10.07;;;2.50;;
55993;SDS011;67425;52.126;20.638;2024-01-16T07:17:47;4.90;;;3.08;;
55993;SDS011;67425;52.126;20.638;2024-01-16T07:20:13;1.92;;;1.52;;
55993;SDS011;67425;52.126;20.638;2024-01-16T07:22:38;3.70;;;2.22;;
55993;SDS011;67425;52.126;20.638;2024-01-16T07:25:07;11.30;;;1.70;;
55993;SDS011;67425;52.126;20.638;2024-01-16T07:27:33;4.28;;;2.17;;
55993;SDS011;67425;52.126;20.638;2024-01-16T07:29:59;4.22;;;1.58;;
55993;SDS011;67425;52.126;20.638;2024-01-16T07:32:25;4.45;;;1.98;;
55993;SDS011;67425;52.126;20.638;2024-01-16T07:34:50;5.05;;;2.13;;
55993;SDS011;67425;52.126;20.638;2024-01-16T07:37:17;3.30;;;2.00;;
55993;SDS011;67425;52.126;20.638;2024-01-16T07:39:43;7.07;;;2.42;;
55993;SDS011;67425;52.126;20.638;2024-01-16T07:42:08;11.60;;;2.75;;
55993;SDS011;67425;52.126;20.638;2024-01-16T07:44:34;2.67;;;2.10;;
55993;SDS011;67425;52.126;20.638;2024-01-16T07:46:59;2.38;;;1.63;;
55993;SDS011;67425;52.126;20.638;2024-01-16T07:49:24;6.10;;;2.30;;
55993;SDS011;67425;52.126;20.638;2024-01-16T07:51:50;3.25;;;1.83;;
55993;SDS011;67425;52.126;20.638;2024-01-16T07:54:15;10.05;;;2.05;;
55993;SDS011;67425;52.126;20.638;2024-01-16T07:56:41;6.00;;;3.15;;
55993;SDS011;67425;52.126;20.638;2024-01-16T07:59:06;9.68;;;2.80;;
55993;SDS011;67425;52.126;20.638;2024-01-16T08:01:32;3.53;;;2.00;;
55993;SDS011;67425;52.126;20.638;2024-01-16T08:03:57;6.55;;;2.20;;
55993;SDS011;67425;52.126;20.638;2024-01-16T08:06:23;4.15;;;3.17;;
55993;SDS011;67425;52.126;20.638;2024-01-16T08:08:49;9.02;;;2.30;;
55993;SDS011;67425;52.126;20.638;2024-01-16T08:11:15;5.07;;;2.28;;
55993;SDS011;67425;52.126;20.638;2024-01-16T08:13:41;5.90;;;4.07;;
55993;SDS011;67425;52.126;20.638;2024-01-16T08:16:07;16.33;;;3.88;;
55993;SDS011;67425;52.126;20.638;2024-01-16T08:18:33;3.78;;;2.85;;
55993;SDS011;67425;52.126;20.638;2024-01-16T08:20:59;9.15;;;3.80;;
55993;SDS011;67425;52.126;20.638;2024-01-16T08:23:24;7.85;;;4.22;;
55993;SDS011;67425;52.126;20.638;2024-01-16T08:25:49;11.75;;;5.15;;
55993;SDS011;67425;52.126;20.638;2024-01-16T08:28:16;15.48;;;4.93;;
55993;SDS011;67425;52.126;20.638;2024-01-16T08:30:45;7.07;;;3.13;;
55993;SDS011;67425;52.126;20.638;2024-01-16T08:33:11;8.00;;;3.80;;
55993;SDS011;67425;52.126;20.638;2024-01-16T08:35:37;18.75;;;5.95;;
55993;SDS011;67425;52.126;20.638;2024-01-16T08:38:03;20.52;;;4.68;;
55993;SDS011;67425;52.126;20.638;2024-01-16T08:40:29;9.55;;;3.35;;
55993;SDS011;67425;52.126;20.638;2024-01-16T08:42:55;3.78;;;2.35;;
55993;SDS011;67425;52.126;20.638;2024-01-16T08:45:20;41.45;;;8.25;;
55993;SDS011;67425;52.126;20.638;2024-01-16T08:47:46;20.80;;;6.88;;
55993;SDS011;67425;52.126;20.638;2024-01-16T08:50:12;10.25;;;3.63;;
55993;SDS011;67425;52.126;20.638;2024-01-16T08:52:37;10.25;;;4.10;;
55993;SDS011;67425;52.126;20.638;2024-01-16T08:55:03;5.95;;;3.35;;
55993;SDS011;67425;52.126;20.638;2024-01-16T08:57:29;12.93;;;3.85;;
55993;SDS011;67425;52.126;20.638;2024-01-16T08:59:54;6.97;;;2.90;;
55993;SDS011;67425;52.126;20.638;2024-01-16T09:02:20;4.63;;;2.85;;
55993;SDS011;67425;52.126;20.638;2024-01-16T09:04:45;8.82;;;3.28;;
55993;SDS011;67425;52.126;20.638;2024-01-16T09:07:12;4.63;;;3.20;;
55993;SDS011;67425;52.126;20.638;2024-01-16T09:09:40;8.52;;;2.72;;
55993;SDS011;67425;52.126;20.638;2024-01-16T09:12:07;6.43;;;2.08;;
55993;SDS011;67425;52.126;20.638;2024-01-16T09:14:33;7.22;;;3.05;;
55993;SDS011;67425;52.126;20.638;2024-01-16T09:16:58;6.65;;;2.55;;
55993;SDS011;67425;52.126;20.638;2024-01-16T09:19:24;5.55;;;2.58;;
55993;SDS011;67425;52.126;20.638;2024-01-16T09:21:49;6.50;;;2.30;;
55993;SDS011;67425;52.126;20.638;2024-01-16T09:24:15;7.35;;;2.40;;
55993;SDS011;67425;52.126;20.638;2024-01-16T09:26:40;10.95;;;2.60;;
55993;SDS011;67425;52.126;20.638;2024-01-16T09:29:05;3.25;;;1.88;;
55993;SDS011;67425;52.126;20.638;2024-01-16T09:31:33;5.50;;;2.67;;
55993;SDS011;67425;52.126;20.638;2024-01-16T09:33:59;8.52;;;3.15;;
55993;SDS011;67425;52.126;20.638;2024-01-16T09:36:24;3.70;;;2.40;;
55993;SDS011;67425;52.126;20.638;2024-01-16T09:38:49;3.47;;;1.55;;
55993;SDS011;67425;52.126;20.638;2024-01-16T09:41:15;3.50;;;2.42;;
55993;SDS011;67425;52.126;20.638;2024-01-16T09:43:41;6.55;;;1.88;;
55993;SDS011;67425;52.126;20.638;2024-01-16T09:46:07;5.82;;;2.05;;
55993;SDS011;67425;52.126;20.638;2024-01-16T09:48:35;7.15;;;2.40;;
55993;SDS011;67425;52.126;20.638;2024-01-16T09:51:01;9.27;;;2.28;;
55993;SDS011;67425;52.126;20.638;2024-01-16T09:53:26;3.35;;;1.80;;
55993;SDS011;67425;52.126;20.638;2024-01-16T09:55:52;8.38;;;4.75;;
55993;SDS011;67425;52.126;20.638;2024-01-16T09:58:19;4.35;;;2.28;;
55993;SDS011;67425;52.126;20.638;2024-01-16T10:00:46;18.77;;;7.03;;
55993;SDS011;67425;52.126;20.638;2024-01-16T10:03:12;13.30;;;5.05;;
55993;SDS011;67425;52.126;20.638;2024-01-16T10:05:42;6.30;;;2.72;;
55993;SDS011;67425;52.126;20.638;2024-01-16T10:08:07;5.25;;;1.95;;
55993;SDS011;67425;52.126;20.638;2024-01-16T10:10:33;3.17;;;2.40;;
55993;SDS011;67425;52.126;20.638;2024-01-16T10:12:59;4.15;;;2.00;;
55993;SDS011;67425;52.126;20.638;2024-01-16T10:15:24;7.78;;;2.20;;
55993;SDS011;67425;52.126;20.638;2024-01-16T10:17:50;9.85;;;2.55;;
55993;SDS011;67425;52.126;20.638;2024-01-16T10:20:16;4.78;;;2.83;;
55993;SDS011;67425;52.126;20.638;2024-01-16T10:22:52;7.15;;;2.08;;
55993;SDS011;67425;52.126;20.638;2024-01-16T10:25:19;5.60;;;3.17;;
55993;SDS011;67425;52.126;20.638;2024-01-16T10:27:46;4.78;;;2.10;;
55993;SDS011;67425;52.126;20.638;2024-01-16T10:30:12;6.18;;;2.38;;
55993;SDS011;67425;52.126;20.638;2024-01-16T10:32:41;6.90;;;1.60;;
55993;SDS011;67425;52.126;20.638;2024-01-16T10:35:08;9.27;;;2.45;;
55993;SDS011;67425;52.126;20.638;2024-01-16T10:37:50;4.40;;;2.97;;
55993;SDS011;67425;52.126;20.638;2024-01-16T10:40:19;5.45;;;3.33;;
55993;SDS011;67425;52.126;20.638;2024-01-16T10:42:45;7.60;;;3.00;;
55993;SDS011;67425;52.126;20.638;2024-01-16T10:45:21;3.95;;;1.98;;
55993;SDS011;67425;52.126;20.638;2024-01-16T10:47:47;10.85;;;3.08;;
55993;SDS011;67425;52.126;20.638;2024-01-16T10:50:13;6.60;;;2.47;;
55993;SDS011;67425;52.126;20.638;2024-01-16T10:52:46;7.65;;;3.00;;
55993;SDS011;67425;52.126;20.638;2024-01-16T10:55:19;4.43;;;1.88;;
55993;SDS011;67425;52.126;20.638;2024-01-16T10:57:48;1.92;;;1.27;;
55993;SDS011;67425;52.126;20.638;2024-01-16T11:00:14;1.77;;;1.10;;
55993;SDS011;67425;52.126;20.638;2024-01-16T11:02:47;6.95;;;3.75;;
55993;SDS011;67425;52.126;20.638;2024-01-16T11:05:16;6.78;;;2.50;;
55993;SDS011;67425;52.126;20.638;2024-01-16T11:07:42;32.08;;;2.22;;
55993;SDS011;67425;52.126;20.638;2024-01-16T11:10:11;3.13;;;2.05;;
55993;SDS011;67425;52.126;20.638;2024-01-16T11:12:38;4.10;;;1.30;;
55993;SDS011;67425;52.126;20.638;2024-01-16T11:15:06;3.30;;;1.13;;
55993;SDS011;67425;52.126;20.638;2024-01-16T11:17:33;1.65;;;1.25;;
55993;SDS011;67425;52.126;20.638;2024-01-16T11:20:03;3.63;;;2.13;;
55993;SDS011;67425;52.126;20.638;2024-01-16T11:22:35;11.82;;;1.50;;
55993;SDS011;67425;52.126;20.638;2024-01-16T11:25:07;4.82;;;2.55;;
55993;SDS011;67425;52.126;20.638;2024-01-16T11:27:34;5.00;;;2.00;;
55993;SDS011;67425;52.126;20.638;2024-01-16T11:29:59;4.28;;;2.58;;
55993;SDS011;67425;52.126;20.638;2024-01-16T11:32:34;7.15;;;1.42;;
55993;SDS011;67425;52.126;20.638;2024-01-16T11:35:00;3.33;;;1.73;;
55993;SDS011;67425;52.126;20.638;2024-01-16T11:37:27;7.93;;;2.58;;
55993;SDS011;67425;52.126;20.638;2024-01-16T11:42:45;4.95;;;2.65;;
55993;SDS011;67425;52.126;20.638;2024-01-16T11:45:54;6.10;;;1.52;;
55993;SDS011;67425;52.126;20.638;2024-01-16T11:48:13;3.75;;;2.10;;
55993;SDS011;67425;52.126;20.638;2024-01-16T11:50:40;4.60;;;1.38;;
55993;SDS011;67425;52.126;20.638;2024-01-16T11:53:06;2.72;;;1.92;;
55993;SDS011;67425;52.126;20.638;2024-01-16T11:55:35;5.57;;;2.17;;
55993;SDS011;67425;52.126;20.638;2024-01-16T12:00:33;2.17;;;1.38;;
55993;SDS011;67425;52.126;20.638;2024-01-16T12:03:02;8.77;;;2.97;;
55993;SDS011;67425;52.126;20.638;2024-01-16T12:05:30;3.30;;;1.25;;
55993;SDS011;67425;52.126;20.638;2024-01-16T12:07:57;8.60;;;2.30;;
55993;SDS011;67425;52.126;20.638;2024-01-16T12:10:22;9.38;;;2.40;;
55993;SDS011;67425;52.126;20.638;2024-01-16T12:12:50;2.10;;;1.55;;
55993;SDS011;67425;52.126;20.638;2024-01-16T12:15:19;8.32;;;1.50;;
55993;SDS011;67425;52.126;20.638;2024-01-16T12:20:21;7.88;;;2.83;;
55993;SDS011;67425;52.126;20.638;2024-01-16T12:22:52;2.33;;;1.67;;
55993;SDS011;67425;52.126;20.638;2024-01-16T12:25:21;5.95;;;1.35;;
55993;SDS011;67425;52.126;20.638;2024-01-16T12:27:54;3.90;;;2.20;;
55993;SDS011;67425;52.126;20.638;2024-01-16T12:30:48;3.80;;;2.30;;
55993;SDS011;67425;52.126;20.638;2024-01-16T12:33:15;8.30;;;2.97;;
55993;SDS011;67425;52.126;20.638;2024-01-16T12:35:42;3.58;;;1.25;;
55993;SDS011;67425;52.126;20.638;2024-01-16T12:38:12;5.50;;;3.35;;
55993;SDS011;67425;52.126;20.638;2024-01-16T12:40:39;12.43;;;3.28;;
55993;SDS011;67425;52.126;20.638;2024-01-16T12:43:07;4.93;;;2.17;;
55993;SDS011;67425;52.126;20.638;2024-01-16T12:45:34;2.17;;;1.17;;
55993;SDS011;67425;52.126;20.638;2024-01-16T12:48:00;2.88;;;1.75;;
55993;SDS011;67425;52.126;20.638;2024-01-16T12:50:28;9.80;;;4.03;;
55993;SDS011;67425;52.126;20.638;2024-01-16T12:53:04;3.03;;;1.63;;
55993;SDS011;67425;52.126;20.638;2024-01-16T12:55:35;1.65;;;1.05;;
55993;SDS011;67425;52.126;20.638;2024-01-16T12:58:15;2.75;;;1.10;;
55993;SDS011;67425;52.126;20.638;2024-01-16T13:00:47;4.20;;;2.00;;
55993;SDS011;67425;52.126;20.638;2024-01-16T13:03:15;8.50;;;2.05;;
55993;SDS011;67425;52.126;20.638;2024-01-16T13:05:42;7.03;;;1.80;;
55993;SDS011;67425;52.126;20.638;2024-01-16T13:08:08;5.13;;;1.35;;
55993;SDS011;67425;52.126;20.638;2024-01-16T13:10:33;6.93;;;2.22;;
55993;SDS011;67425;52.126;20.638;2024-01-16T13:13:11;0.52;;;0.52;;
55993;SDS011;67425;52.126;20.638;2024-01-16T13:15:37;4.43;;;2.83;;
55993;SDS011;67425;52.126;20.638;2024-01-16T13:18:03;1.58;;;1.08;;
55993;SDS011;67425;52.126;20.638;2024-01-16T13:20:29;3.25;;;1.77;;
55993;SDS011;67425;52.126;20.638;2024-01-16T13:22:55;5.72;;;2.17;;
55993;SDS011;67425;52.126;20.638;2024-01-16T13:25:20;9.65;;;1.92;;
55993;SDS011;67425;52.126;20.638;2024-01-16T13:27:46;2.67;;;1.45;;
55993;SDS011;67425;52.126;20.638;2024-01-16T13:30:12;13.80;;;3.78;;
55993;SDS011;67425;52.126;20.638;2024-01-16T13:32:38;4.63;;;1.73;;
55993;SDS011;67425;52.126;20.638;2024-01-16T13:35:03;3.10;;;1.65;;
55993;SDS011;67425;52.126;20.638;2024-01-16T13:37:32;5.05;;;2.35;;
55993;SDS011;67425;52.126;20.638;2024-01-16T13:39:58;4.07;;;2.40;;
55993;SDS011;67425;52.126;20.638;2024-01-16T13:42:23;3.17;;;1.88;;
55993;SDS011;67425;52.126;20.638;2024-01-16T13:44:49;2.45;;;2.05;;
55993;SDS011;67425;52.126;20.638;2024-01-16T13:47:15;20.77;;;2.42;;
55993;SDS011;67425;52.126;20.638;2024-01-16T13:49:41;3.15;;;2.00;;
55993;SDS011;67425;52.126;20.638;2024-01-16T13:52:06;5.47;;;2.35;;
55993;SDS011;67425;52.126;20.638;2024-01-16T13:54:32;4.85;;;2.97;;
55993;SDS011;67425;52.126;20.638;2024-01-16T13:56:57;8.38;;;3.00;;
55993;SDS011;67425;52.126;20.638;2024-01-16T13:59:22;7.72;;;1.88;;
55993;SDS011;67425;52.126;20.638;2024-01-16T14:01:48;5.45;;;2.30;;
55993;SDS011;67425;52.126;20.638;2024-01-16T14:04:13;4.07;;;2.38;;
55993;SDS011;67425;52.126;20.638;2024-01-16T14:06:38;2.17;;;1.77;;
55993;SDS011;67425;52.126;20.638;2024-01-16T14:09:04;2.40;;;1.92;;
55993;SDS011;67425;52.126;20.638;2024-01-16T14:11:32;8.13;;;2.20;;
55993;SDS011;67425;52.126;20.638;2024-01-16T14:13:58;4.22;;;1.45;;
55993;SDS011;67425;52.126;20.638;2024-01-16T14:16:23;5.75;;;2.72;;
55993;SDS011;67425;52.126;20.638;2024-01-16T14:18:49;12.90;;;1.83;;
55993;SDS011;67425;52.126;20.638;2024-01-16T14:21:14;6.50;;;2.10;;
55993;SDS011;67425;52.126;20.638;2024-01-16T14:23:40;7.93;;;1.55;;
55993;SDS011;67425;52.126;20.638;2024-01-16T14:26:05;3.15;;;1.60;;
55993;SDS011;67425;52.126;20.638;2024-01-16T14:28:30;8.15;;;2.10;;
55993;SDS011;67425;52.126;20.638;2024-01-16T14:30:57;4.07;;;1.98;;
55993;SDS011;67425;52.126;20.638;2024-01-16T14:33:28;5.70;;;1.52;;
55993;SDS011;67425;52.126;20.638;2024-01-16T14:35:53;6.85;;;1.83;;